createdAt,value
2022-08-07T00:00:04.101Z,1022.33
2022-08-07T00:01:01.085Z,1022.31
2022-08-07T00:02:37.008Z,1022.38
2022-08-07T00:03:00.903Z,1022.36
2022-08-07T00:04:03.523Z,1022.40
2022-08-07T00:05:00.686Z,1022.39
2022-08-07T00:06:00.803Z,1022.33
2022-08-07T00:07:01.335Z,1022.32
2022-08-07T00:08:02.150Z,1022.37
2022-08-07T00:09:16.217Z,1022.35
2022-08-07T00:10:25.571Z,1022.33
2022-08-07T00:11:01.449Z,1022.35
2022-08-07T00:12:02.503Z,1022.39
2022-08-07T00:13:03.121Z,1022.37
2022-08-07T00:14:03.384Z,1022.38
2022-08-07T00:15:00.489Z,1022.39
2022-08-07T00:16:00.776Z,1022.38
2022-08-07T00:17:00.054Z,1022.38
2022-08-07T00:18:00.364Z,1022.35
2022-08-07T00:19:00.487Z,1022.35
2022-08-07T00:20:03.484Z,1022.34
2022-08-07T00:21:01.754Z,1022.37
2022-08-07T00:22:02.130Z,1022.37
2022-08-07T00:22:59.586Z,1022.35
2022-08-07T00:23:59.724Z,1022.33
2022-08-07T00:24:59.384Z,1022.37
2022-08-07T00:26:06.955Z,1022.36
2022-08-07T00:27:06.683Z,1022.33
2022-08-07T00:27:59.410Z,1022.37
2022-08-07T00:28:59.244Z,1022.30
2022-08-07T00:29:59.066Z,1022.32
2022-08-07T00:30:59.117Z,1022.32
2022-08-07T00:31:59.034Z,1022.26
2022-08-07T00:32:58.967Z,1022.28
2022-08-07T00:33:58.927Z,1022.28
2022-08-07T00:34:58.770Z,1022.28
2022-08-07T00:35:58.699Z,1022.27
2022-08-07T00:36:58.637Z,1022.26
2022-08-07T00:37:58.633Z,1022.26
2022-08-07T00:38:58.601Z,1022.29
2022-08-07T00:39:58.493Z,1022.29
2022-08-07T00:40:58.393Z,1022.29
2022-08-07T00:42:02.601Z,1022.29
2022-08-07T00:42:58.265Z,1022.28
2022-08-07T00:43:59.485Z,1022.25
2022-08-07T00:44:58.191Z,1022.29
2022-08-07T00:45:58.123Z,1022.30
2022-08-07T00:46:58.048Z,1022.26
2022-08-07T00:48:07.731Z,1022.28
2022-08-07T00:48:57.974Z,1022.21
2022-08-07T00:50:19.128Z,1022.25
2022-08-07T00:50:57.887Z,1022.23
2022-08-07T00:51:58.815Z,1022.27
2022-08-07T00:52:57.654Z,1022.24
2022-08-07T00:53:57.632Z,1022.24
2022-08-07T00:54:57.532Z,1022.26
2022-08-07T00:56:02.893Z,1022.29
2022-08-07T00:56:57.414Z,1022.27
2022-08-07T00:57:57.337Z,1022.29
2022-08-07T00:58:57.313Z,1022.28
2022-08-07T00:59:57.215Z,1022.24
2022-08-07T01:00:57.159Z,1022.29
2022-08-07T01:01:57.975Z,1022.29
2022-08-07T01:02:57.059Z,1022.29
2022-08-07T01:04:00.046Z,1022.29
2022-08-07T01:04:58.796Z,1022.30
2022-08-07T01:05:56.864Z,1022.26
2022-08-07T01:06:56.815Z,1022.29
2022-08-07T01:07:56.723Z,1022.31
2022-08-07T01:09:00.613Z,1022.29
2022-08-07T01:10:06.619Z,1022.29
2022-08-07T01:10:56.728Z,1022.32
2022-08-07T01:12:28.077Z,1022.28
2022-08-07T01:12:56.412Z,1022.28
2022-08-07T01:13:56.476Z,1022.25
2022-08-07T01:14:57.079Z,1022.25
2022-08-07T01:16:05.747Z,1022.26
2022-08-07T01:16:56.283Z,1022.25
2022-08-07T01:17:56.118Z,1022.22
2022-08-07T01:18:56.143Z,1022.24
2022-08-07T01:19:56.113Z,1022.26
2022-08-07T01:20:59.127Z,1022.24
2022-08-07T01:21:55.851Z,1022.24
2022-08-07T01:23:12.879Z,1022.23
2022-08-07T01:23:55.857Z,1022.24
2022-08-07T01:24:55.674Z,1022.24
2022-08-07T01:25:56.424Z,1022.23
2022-08-07T01:26:55.570Z,1022.20
2022-08-07T01:27:55.479Z,1022.19
2022-08-07T01:28:55.452Z,1022.17
2022-08-07T01:29:55.363Z,1022.19
2022-08-07T01:30:55.302Z,1022.16
2022-08-07T01:31:55.238Z,1022.17
2022-08-07T01:32:55.181Z,1022.15
2022-08-07T01:33:57.596Z,1022.16
2022-08-07T01:34:55.065Z,1022.18
2022-08-07T01:36:05.939Z,1022.19
2022-08-07T01:36:57.986Z,1022.17
2022-08-07T01:37:54.883Z,1022.20
2022-08-07T01:38:54.937Z,1022.16
2022-08-07T01:39:54.957Z,1022.22
2022-08-07T01:40:54.699Z,1022.19
2022-08-07T01:42:07.220Z,1022.18
2022-08-07T01:42:58.476Z,1022.18
2022-08-07T01:43:54.622Z,1022.17
2022-08-07T01:44:54.535Z,1022.13
2022-08-07T01:45:54.726Z,1022.14
2022-08-07T01:46:54.451Z,1022.14
2022-08-07T01:48:19.413Z,1022.17
2022-08-07T01:48:54.198Z,1022.18
2022-08-07T01:49:54.838Z,1022.18
2022-08-07T01:50:55.642Z,1022.17
2022-08-07T01:52:03.653Z,1022.19
2022-08-07T01:52:54.880Z,1022.21
2022-08-07T01:54:12.620Z,1022.22
2022-08-07T01:54:53.912Z,1022.20
2022-08-07T01:55:53.762Z,1022.23
2022-08-07T01:56:54.047Z,1022.28
2022-08-07T01:58:06.136Z,1022.22
2022-08-07T01:58:53.697Z,1022.28
2022-08-07T01:59:53.628Z,1022.26
2022-08-07T02:00:57.950Z,1022.30
2022-08-07T02:02:02.836Z,1022.26
2022-08-07T02:03:18.041Z,1022.24
2022-08-07T02:03:53.467Z,1022.27
2022-08-07T02:04:56.078Z,1022.28
2022-08-07T02:06:01.020Z,1022.24
2022-08-07T02:06:53.079Z,1022.25
2022-08-07T02:07:53.005Z,1022.29
2022-08-07T02:08:54.305Z,1022.28
2022-08-07T02:09:58.530Z,1022.26
2022-08-07T02:10:55.400Z,1022.25
2022-08-07T02:12:03.038Z,1022.24
2022-08-07T02:12:52.709Z,1022.28
2022-08-07T02:13:57.230Z,1022.23
2022-08-07T02:14:52.596Z,1022.27
2022-08-07T02:15:53.114Z,1022.23
2022-08-07T02:16:52.459Z,1022.23
2022-08-07T02:17:52.404Z,1022.26
2022-08-07T02:18:52.324Z,1022.23
2022-08-07T02:20:04.473Z,1022.22
2022-08-07T02:20:57.370Z,1022.20
2022-08-07T02:21:56.357Z,1022.20
2022-08-07T02:22:54.798Z,1022.16
2022-08-07T02:23:52.125Z,1022.22
2022-08-07T02:24:52.082Z,1022.21
2022-08-07T02:26:31.973Z,1022.19
2022-08-07T02:26:51.815Z,1022.16
2022-08-07T02:27:53.090Z,1022.19
2022-08-07T02:28:51.813Z,1022.17
2022-08-07T02:29:54.499Z,1022.16
2022-08-07T02:30:51.684Z,1022.18
2022-08-07T02:31:51.641Z,1022.19
2022-08-07T02:33:00.407Z,1022.22
2022-08-07T02:34:01.729Z,1022.20
2022-08-07T02:34:51.516Z,1022.21
2022-08-07T02:36:29.455Z,1022.16
2022-08-07T02:36:51.248Z,1022.22
2022-08-07T02:37:51.235Z,1022.21
2022-08-07T02:38:57.107Z,1022.20
2022-08-07T02:40:02.008Z,1022.19
2022-08-07T02:40:55.512Z,1022.19
2022-08-07T02:41:54.909Z,1022.20
2022-08-07T02:42:50.941Z,1022.22
2022-08-07T02:43:50.778Z,1022.19
2022-08-07T02:44:51.945Z,1022.23
2022-08-07T02:46:00.722Z,1022.22
2022-08-07T02:46:52.628Z,1022.24
2022-08-07T02:47:50.664Z,1022.25
2022-08-07T02:48:55.079Z,1022.23
2022-08-07T02:49:57.752Z,1022.23
2022-08-07T02:50:50.432Z,1022.27
2022-08-07T02:51:52.320Z,1022.22
2022-08-07T02:52:50.326Z,1022.23
2022-08-07T02:53:50.140Z,1022.23
2022-08-07T02:54:50.085Z,1022.20
2022-08-07T02:56:03.220Z,1022.21
2022-08-07T02:56:49.973Z,1022.20
2022-08-07T02:57:49.932Z,1022.18
2022-08-07T02:58:49.907Z,1022.19
2022-08-07T02:59:54.937Z,1022.18
2022-08-07T03:00:49.771Z,1022.17
2022-08-07T03:01:52.306Z,1022.18
2022-08-07T03:02:54.651Z,1022.16
2022-08-07T03:03:50.928Z,1022.13
2022-08-07T03:04:49.489Z,1022.16
2022-08-07T03:05:49.398Z,1022.13
2022-08-07T03:06:49.390Z,1022.14
2022-08-07T03:08:05.153Z,1022.12
2022-08-07T03:08:49.230Z,1022.13
2022-08-07T03:09:52.144Z,1022.14
2022-08-07T03:10:49.119Z,1022.14
2022-08-07T03:11:52.368Z,1022.14
2022-08-07T03:12:49.007Z,1022.15
2022-08-07T03:13:49.910Z,1022.16
2022-08-07T03:14:52.102Z,1022.13
2022-08-07T03:15:56.337Z,1022.11
2022-08-07T03:16:48.732Z,1022.13
2022-08-07T03:17:53.775Z,1022.15
2022-08-07T03:18:48.652Z,1022.15
2022-08-07T03:19:55.152Z,1022.15
2022-08-07T03:20:48.461Z,1022.13
2022-08-07T03:21:50.786Z,1022.17
2022-08-07T03:22:50.389Z,1022.17
2022-08-07T03:24:18.410Z,1022.18
2022-08-07T03:24:48.206Z,1022.20
2022-08-07T03:25:58.329Z,1022.19
2022-08-07T03:26:58.422Z,1022.16
2022-08-07T03:27:59.745Z,1022.18
2022-08-07T03:28:47.971Z,1022.19
2022-08-07T03:29:49.589Z,1022.18
2022-08-07T03:30:47.848Z,1022.14
2022-08-07T03:31:50.050Z,1022.15
2022-08-07T03:32:57.119Z,1022.21
2022-08-07T03:33:47.718Z,1022.16
2022-08-07T03:35:01.141Z,1022.19
2022-08-07T03:35:50.443Z,1022.20
2022-08-07T03:36:47.462Z,1022.17
2022-08-07T03:37:54.993Z,1022.19
2022-08-07T03:38:47.392Z,1022.18
2022-08-07T03:39:59.564Z,1022.19
2022-08-07T03:40:47.313Z,1022.20
2022-08-07T03:41:47.769Z,1022.19
2022-08-07T03:42:47.104Z,1022.23
2022-08-07T03:43:56.783Z,1022.21
2022-08-07T03:44:53.146Z,1022.25
2022-08-07T03:45:47.808Z,1022.24
2022-08-07T03:47:13.481Z,1022.25
2022-08-07T03:47:51.303Z,1022.24
2022-08-07T03:49:02.879Z,1022.23
2022-08-07T03:49:52.149Z,1022.30
2022-08-07T03:50:51.987Z,1022.25
2022-08-07T03:51:47.272Z,1022.25
2022-08-07T03:52:46.472Z,1022.26
2022-08-07T03:54:33.034Z,1022.28
2022-08-07T03:54:54.216Z,1022.23
2022-08-07T03:55:58.348Z,1022.25
2022-08-07T03:57:03.678Z,1022.27
2022-08-07T03:58:35.419Z,1022.27
2022-08-07T03:59:07.427Z,1022.29
2022-08-07T03:59:46.497Z,1022.25
2022-08-07T04:00:46.600Z,1022.29
2022-08-07T04:01:46.176Z,1022.30
2022-08-07T04:02:47.516Z,1022.28
2022-08-07T04:03:53.522Z,1022.25
2022-08-07T04:04:45.725Z,1022.26
2022-08-07T04:05:45.798Z,1022.30
2022-08-07T04:06:45.595Z,1022.31
2022-08-07T04:07:45.599Z,1022.27
2022-08-07T04:08:45.447Z,1022.27
2022-08-07T04:09:50.295Z,1022.30
2022-08-07T04:10:53.578Z,1022.28
2022-08-07T04:12:25.245Z,1022.30
2022-08-07T04:12:45.226Z,1022.29
2022-08-07T04:14:10.900Z,1022.31
2022-08-07T04:14:47.683Z,1022.30
2022-08-07T04:15:45.604Z,1022.28
2022-08-07T04:16:58.684Z,1022.28
2022-08-07T04:18:58.262Z,1022.26
2022-08-07T04:18:59.556Z,1022.29
2022-08-07T04:19:52.226Z,1022.25
2022-08-07T04:20:54.550Z,1022.26
2022-08-07T04:21:47.990Z,1022.26
2022-08-07T04:22:53.757Z,1022.28
2022-08-07T04:24:06.044Z,1022.28
2022-08-07T04:24:44.447Z,1022.32
2022-08-07T04:25:44.400Z,1022.32
2022-08-07T04:26:44.355Z,1022.32
2022-08-07T04:27:46.252Z,1022.28
2022-08-07T04:28:44.229Z,1022.34
2022-08-07T04:29:58.460Z,1022.35
2022-08-07T04:30:56.891Z,1022.29
2022-08-07T04:32:03.302Z,1022.32
2022-08-07T04:32:44.866Z,1022.30
2022-08-07T04:33:43.898Z,1022.29
2022-08-07T04:34:43.887Z,1022.33
2022-08-07T04:35:43.893Z,1022.36
2022-08-07T04:36:43.789Z,1022.31
2022-08-07T04:38:02.893Z,1022.30
2022-08-07T04:38:43.593Z,1022.39
2022-08-07T04:39:47.869Z,1022.37
2022-08-07T04:40:52.159Z,1022.37
2022-08-07T04:41:43.395Z,1022.37
2022-08-07T04:42:43.688Z,1022.38
2022-08-07T04:44:11.711Z,1022.36
2022-08-07T04:44:54.678Z,1022.40
2022-08-07T04:46:00.447Z,1022.39
2022-08-07T04:47:04.135Z,1022.36
2022-08-07T04:47:58.586Z,1022.38
2022-08-07T04:48:44.761Z,1022.39
2022-08-07T04:49:57.329Z,1022.39
2022-08-07T04:50:42.847Z,1022.41
2022-08-07T04:51:42.763Z,1022.42
2022-08-07T04:52:51.220Z,1022.40
2022-08-07T04:54:05.721Z,1022.44
2022-08-07T04:54:42.613Z,1022.44
2022-08-07T04:58:15.425Z,1022.45
2022-08-07T04:58:16.701Z,1022.47
2022-08-07T04:58:24.504Z,1022.44
2022-08-07T04:59:16.963Z,1022.44
2022-08-07T05:00:10.784Z,1022.49
2022-08-07T05:00:42.271Z,1022.45
2022-08-07T05:01:42.199Z,1022.43
2022-08-07T05:02:43.458Z,1022.46
2022-08-07T05:04:07.435Z,1022.45
2022-08-07T05:04:47.089Z,1022.45
2022-08-07T05:05:53.396Z,1022.40
2022-08-07T05:06:43.700Z,1022.43
2022-08-07T05:07:44.170Z,1022.41
2022-08-07T05:08:59.650Z,1022.44
2022-08-07T05:09:45.518Z,1022.44
2022-08-07T05:10:41.624Z,1022.44
2022-08-07T05:11:58.269Z,1022.44
2022-08-07T05:12:52.806Z,1022.42
2022-08-07T05:14:53.754Z,1022.42
2022-08-07T05:14:54.506Z,1022.41
2022-08-07T05:15:41.269Z,1022.41
2022-08-07T05:16:44.121Z,1022.44
2022-08-07T05:17:52.291Z,1022.42
2022-08-07T05:18:41.093Z,1022.43
2022-08-07T05:19:44.845Z,1022.41
2022-08-07T05:20:40.983Z,1022.44
2022-08-07T05:21:58.935Z,1022.42
2022-08-07T05:22:40.887Z,1022.42
2022-08-07T05:23:40.811Z,1022.42
2022-08-07T05:24:40.853Z,1022.44
2022-08-07T05:26:10.662Z,1022.46
2022-08-07T05:26:40.625Z,1022.47
2022-08-07T05:28:16.273Z,1022.51
2022-08-07T05:28:40.770Z,1022.50
2022-08-07T05:29:51.117Z,1022.48
2022-08-07T05:30:40.344Z,1022.52
2022-08-07T05:31:40.271Z,1022.53
2022-08-07T05:32:40.254Z,1022.58
2022-08-07T05:33:40.193Z,1022.59
2022-08-07T05:34:40.108Z,1022.60
2022-08-07T05:35:41.782Z,1022.61
2022-08-07T05:36:40.035Z,1022.61
2022-08-07T05:37:42.388Z,1022.63
2022-08-07T05:39:00.301Z,1022.60
2022-08-07T05:40:17.085Z,1022.65
2022-08-07T05:40:50.599Z,1022.62
2022-08-07T05:42:02.350Z,1022.62
2022-08-07T05:42:39.635Z,1022.65
2022-08-07T05:44:08.710Z,1022.58
2022-08-07T05:44:41.595Z,1022.65
2022-08-07T05:45:47.314Z,1022.65
2022-08-07T05:46:39.430Z,1022.68
2022-08-07T05:48:01.689Z,1022.67
2022-08-07T05:48:58.056Z,1022.64
2022-08-07T05:49:40.924Z,1022.65
2022-08-07T05:50:39.526Z,1022.70
2022-08-07T05:51:40.100Z,1022.67
2022-08-07T05:52:39.063Z,1022.70
2022-08-07T05:54:12.342Z,1022.72
2022-08-07T05:54:44.650Z,1022.70
2022-08-07T05:56:03.350Z,1022.72
2022-08-07T05:56:38.806Z,1022.69
2022-08-07T05:57:42.217Z,1022.69
2022-08-07T05:58:39.245Z,1022.66
2022-08-07T05:59:55.578Z,1022.66
2022-08-07T06:00:38.566Z,1022.68
2022-08-07T06:01:38.644Z,1022.66
2022-08-07T06:02:38.433Z,1022.70
2022-08-07T06:03:53.602Z,1022.72
2022-08-07T06:04:38.336Z,1022.68
2022-08-07T06:05:38.261Z,1022.65
2022-08-07T06:06:38.338Z,1022.69
2022-08-07T06:08:13.017Z,1022.71
2022-08-07T06:08:42.394Z,1022.69
2022-08-07T06:10:04.105Z,1022.71
2022-08-07T06:10:37.958Z,1022.74
2022-08-07T06:11:37.891Z,1022.78
2022-08-07T06:12:37.830Z,1022.75
2022-08-07T06:14:11.700Z,1022.74
2022-08-07T06:14:37.740Z,1022.77
2022-08-07T06:15:42.302Z,1022.79
2022-08-07T06:16:37.639Z,1022.79
2022-08-07T06:17:41.170Z,1022.81
2022-08-07T06:18:37.504Z,1022.77
2022-08-07T06:19:52.129Z,1022.77
2022-08-07T06:20:50.790Z,1022.78
2022-08-07T06:22:14.979Z,1022.77
2022-08-07T06:22:40.318Z,1022.78
2022-08-07T06:24:37.217Z,1022.81
2022-08-07T06:24:52.954Z,1022.80
2022-08-07T06:25:37.065Z,1022.80
2022-08-07T06:26:37.061Z,1022.79
2022-08-07T06:27:59.990Z,1022.77
2022-08-07T06:28:36.969Z,1022.83
2022-08-07T06:29:39.027Z,1022.79
2022-08-07T06:30:41.374Z,1022.78
2022-08-07T06:31:46.984Z,1022.81
2022-08-07T06:32:36.687Z,1022.77
2022-08-07T06:33:36.613Z,1022.74
2022-08-07T06:34:36.595Z,1022.75
2022-08-07T06:35:47.998Z,1022.78
2022-08-07T06:36:36.749Z,1022.78
2022-08-07T06:37:44.017Z,1022.77
2022-08-07T06:38:36.430Z,1022.77
2022-08-07T06:40:15.988Z,1022.82
2022-08-07T06:40:36.395Z,1022.83
2022-08-07T06:42:01.116Z,1022.81
2022-08-07T06:42:36.656Z,1022.85
2022-08-07T06:43:39.577Z,1022.85
2022-08-07T06:44:39.812Z,1022.88
2022-08-07T06:45:37.748Z,1022.84
2022-08-07T06:46:35.957Z,1022.89
2022-08-07T06:47:48.083Z,1022.85
2022-08-07T06:50:13.059Z,1022.89
2022-08-07T06:51:09.502Z,1022.87
2022-08-07T06:52:10.283Z,1022.90
2022-08-07T06:53:49.163Z,1022.87
2022-08-07T06:55:28.516Z,1022.85
2022-08-07T06:55:32.012Z,1022.87
2022-08-07T06:56:14.796Z,1022.86
2022-08-07T06:57:07.477Z,1022.87
2022-08-07T06:58:10.230Z,1022.87
2022-08-07T07:00:13.374Z,1022.90
2022-08-07T07:00:14.593Z,1022.86
2022-08-07T07:01:07.416Z,1022.84
2022-08-07T07:02:07.232Z,1022.86
2022-08-07T07:03:10.860Z,1022.86
2022-08-07T07:04:28.528Z,1022.90
2022-08-07T07:05:07.030Z,1022.88
2022-08-07T07:06:11.276Z,1022.87
2022-08-07T07:07:18.809Z,1022.83
2022-08-07T07:08:10.081Z,1022.85
2022-08-07T07:09:06.835Z,1022.85
2022-08-07T07:10:06.733Z,1022.88
2022-08-07T07:11:13.885Z,1022.86
2022-08-07T07:12:09.732Z,1022.89
2022-08-07T07:13:06.592Z,1022.89
2022-08-07T07:14:08.463Z,1022.89
2022-08-07T07:15:08.634Z,1022.91
2022-08-07T07:16:06.430Z,1022.93
2022-08-07T07:17:06.340Z,1022.91
2022-08-07T07:18:06.368Z,1022.90
2022-08-07T07:19:19.023Z,1022.88
2022-08-07T07:20:06.175Z,1022.87
2022-08-07T07:21:06.143Z,1022.92
2022-08-07T07:22:34.416Z,1022.91
2022-08-07T07:24:09.264Z,1022.87
2022-08-07T07:24:11.390Z,1022.92
2022-08-07T07:25:14.198Z,1022.88
2022-08-07T07:26:31.561Z,1022.90
2022-08-07T07:27:05.846Z,1022.87
2022-08-07T07:28:29.505Z,1022.89
2022-08-07T07:29:39.250Z,1022.84
2022-08-07T07:30:09.119Z,1022.89
2022-08-07T07:31:05.589Z,1022.86
2022-08-07T07:32:05.499Z,1022.83
2022-08-07T07:33:05.486Z,1022.84
2022-08-07T07:34:05.432Z,1022.86
2022-08-07T07:35:05.337Z,1022.79
2022-08-07T07:36:12.834Z,1022.80
2022-08-07T07:37:05.556Z,1022.82
2022-08-07T07:38:05.992Z,1022.76
2022-08-07T07:39:05.224Z,1022.79
2022-08-07T07:40:10.408Z,1022.74
2022-08-07T07:41:05.013Z,1022.74
2022-08-07T07:42:13.375Z,1022.76
2022-08-07T07:43:11.839Z,1022.73
2022-08-07T07:44:17.904Z,1022.76
2022-08-07T07:45:04.792Z,1022.75
2022-08-07T07:46:37.922Z,1022.75
2022-08-07T07:47:16.055Z,1022.75
2022-08-07T07:48:04.619Z,1022.73
2022-08-07T07:50:31.564Z,1022.74
2022-08-07T07:50:32.840Z,1022.74
2022-08-07T07:51:07.997Z,1022.71
2022-08-07T07:52:04.434Z,1022.72
2022-08-07T07:53:04.359Z,1022.69
2022-08-07T07:54:04.292Z,1022.69
2022-08-07T07:55:04.253Z,1022.65
2022-08-07T07:56:04.178Z,1022.60
2022-08-07T07:57:04.120Z,1022.65
2022-08-07T07:58:04.086Z,1022.66
2022-08-07T07:59:04.072Z,1022.65
2022-08-07T08:00:03.967Z,1022.65
2022-08-07T08:02:02.806Z,1022.68
2022-08-07T08:02:05.268Z,1022.66
2022-08-07T08:03:05.431Z,1022.64
2022-08-07T08:04:09.282Z,1022.60
2022-08-07T08:05:03.698Z,1022.60
2022-08-07T08:06:03.653Z,1022.57
2022-08-07T08:07:07.640Z,1022.52
2022-08-07T08:08:03.611Z,1022.54
2022-08-07T08:09:03.513Z,1022.58
2022-08-07T08:10:04.898Z,1022.58
2022-08-07T08:11:03.738Z,1022.53
2022-08-07T08:12:04.994Z,1022.56
2022-08-07T08:13:03.257Z,1022.56
2022-08-07T08:14:03.244Z,1022.54
2022-08-07T08:15:06.725Z,1022.56
2022-08-07T08:16:03.104Z,1022.52
2022-08-07T08:17:55.362Z,1022.56
2022-08-07T08:18:17.421Z,1022.52
2022-08-07T08:19:17.706Z,1022.54
2022-08-07T08:20:19.750Z,1022.48
2022-08-07T08:21:02.854Z,1022.49
2022-08-07T08:22:03.848Z,1022.50
2022-08-07T08:23:02.714Z,1022.47
2022-08-07T08:24:02.682Z,1022.45
2022-08-07T08:25:18.657Z,1022.48
2022-08-07T08:26:07.000Z,1022.49
2022-08-07T08:27:02.524Z,1022.46
2022-08-07T08:28:03.939Z,1022.45
2022-08-07T08:29:02.441Z,1022.46
2022-08-07T08:30:02.987Z,1022.46
2022-08-07T08:31:02.310Z,1022.47
2022-08-07T08:32:18.031Z,1022.50
2022-08-07T08:33:02.191Z,1022.49
2022-08-07T08:34:02.161Z,1022.46
2022-08-07T08:35:02.113Z,1022.47
2022-08-07T08:36:02.067Z,1022.43
2022-08-07T08:37:02.027Z,1022.47
2022-08-07T08:38:03.422Z,1022.45
2022-08-07T08:39:02.763Z,1022.44
2022-08-07T08:40:01.958Z,1022.46
2022-08-07T08:41:02.764Z,1022.47
2022-08-07T08:42:01.715Z,1022.48
2022-08-07T08:43:01.667Z,1022.47
2022-08-07T08:44:01.630Z,1022.47
2022-08-07T08:45:01.554Z,1022.47
2022-08-07T08:46:01.506Z,1022.48
2022-08-07T08:47:01.499Z,1022.44
2022-08-07T08:48:01.435Z,1022.51
2022-08-07T08:49:01.351Z,1022.45
2022-08-07T08:50:04.765Z,1022.48
2022-08-07T08:51:03.478Z,1022.41
2022-08-07T08:52:14.041Z,1022.40
2022-08-07T08:53:01.167Z,1022.41
2022-08-07T08:54:01.079Z,1022.38
2022-08-07T08:55:04.685Z,1022.40
2022-08-07T08:56:01.047Z,1022.40
2022-08-07T08:57:00.925Z,1022.42
2022-08-07T08:58:00.882Z,1022.40
2022-08-07T08:59:06.551Z,1022.37
2022-08-07T09:00:00.781Z,1022.40
2022-08-07T09:01:00.936Z,1022.39
2022-08-07T09:02:00.777Z,1022.40
2022-08-07T09:03:00.835Z,1022.34
2022-08-07T09:04:00.603Z,1022.35
2022-08-07T09:05:00.540Z,1022.31
2022-08-07T09:06:00.500Z,1022.29
2022-08-07T09:07:00.418Z,1022.28
2022-08-07T09:08:00.347Z,1022.32
2022-08-07T09:09:00.352Z,1022.31
2022-08-07T09:10:03.342Z,1022.31
2022-08-07T09:11:00.213Z,1022.32
2022-08-07T09:12:20.129Z,1022.33
2022-08-07T09:13:00.161Z,1022.30
2022-08-07T09:14:00.064Z,1022.28
2022-08-07T09:14:59.989Z,1022.30
2022-08-07T09:16:24.061Z,1022.29
2022-08-07T09:16:59.915Z,1022.33
2022-08-07T09:18:05.979Z,1022.30
2022-08-07T09:18:59.805Z,1022.34
2022-08-07T09:19:59.720Z,1022.34
2022-08-07T09:21:00.908Z,1022.33
2022-08-07T09:24:29.400Z,1022.34
2022-08-07T09:24:31.969Z,1022.31
2022-08-07T09:24:32.816Z,1022.30
2022-08-07T09:25:08.195Z,1022.28
2022-08-07T09:25:59.455Z,1022.27
2022-08-07T09:27:04.605Z,1022.23
2022-08-07T09:27:59.972Z,1022.24
2022-08-07T09:30:01.889Z,1022.23
2022-08-07T09:30:05.651Z,1022.23
2022-08-07T09:30:59.181Z,1022.23
2022-08-07T09:31:59.186Z,1022.23
2022-08-07T09:32:59.061Z,1022.22
2022-08-07T09:33:59.032Z,1022.17
2022-08-07T09:34:59.000Z,1022.17
2022-08-07T09:36:02.927Z,1022.13
2022-08-07T09:36:58.879Z,1022.13
2022-08-07T09:37:58.818Z,1022.15
2022-08-07T09:38:58.906Z,1022.11
2022-08-07T09:39:58.706Z,1022.11
2022-08-07T09:40:58.689Z,1022.09
2022-08-07T09:42:05.805Z,1022.09
2022-08-07T09:42:58.663Z,1022.03
2022-08-07T09:44:05.829Z,1022.09
2022-08-07T09:47:50.340Z,1022.05
2022-08-07T09:47:55.513Z,1022.08
2022-08-07T09:47:55.665Z,1022.05
2022-08-07T09:48:02.953Z,1022.00
2022-08-07T09:50:01.257Z,1022.04
2022-08-07T09:50:01.878Z,1022.09
2022-08-07T09:50:59.490Z,1022.03
2022-08-07T09:52:15.720Z,1022.09
2022-08-07T09:52:58.056Z,1022.06
2022-08-07T09:54:02.356Z,1022.02
2022-08-07T09:54:57.933Z,1022.08
2022-08-07T09:56:03.533Z,1021.99
2022-08-07T09:56:57.827Z,1022.02
2022-08-07T09:57:57.796Z,1022.04
2022-08-07T09:58:57.756Z,1021.98
2022-08-07T10:00:00.780Z,1022.02
2022-08-07T10:00:57.699Z,1022.04
2022-08-07T10:01:57.555Z,1021.99
2022-08-07T10:02:57.526Z,1021.94
2022-08-07T10:04:04.705Z,1021.96
2022-08-07T10:04:57.483Z,1021.97
2022-08-07T10:06:01.236Z,1021.95
2022-08-07T10:06:57.633Z,1021.93
2022-08-07T10:07:57.478Z,1021.93
2022-08-07T10:08:57.220Z,1021.94
2022-08-07T10:10:00.783Z,1021.87
2022-08-07T10:11:59.437Z,1021.85
2022-08-07T10:11:59.771Z,1021.88
2022-08-07T10:12:57.020Z,1021.81
2022-08-07T10:14:01.660Z,1021.87
2022-08-07T10:14:56.874Z,1021.84
2022-08-07T10:15:56.813Z,1021.83
2022-08-07T10:16:59.591Z,1021.77
2022-08-07T10:18:00.897Z,1021.79
2022-08-07T10:18:56.667Z,1021.71
2022-08-07T10:19:56.652Z,1021.72
2022-08-07T10:20:56.603Z,1021.73
2022-08-07T10:22:15.880Z,1021.74
2022-08-07T10:22:56.501Z,1021.72
2022-08-07T10:24:06.443Z,1021.68
2022-08-07T10:24:57.448Z,1021.69
2022-08-07T10:25:56.287Z,1021.66
2022-08-07T10:26:56.304Z,1021.66
2022-08-07T10:27:56.214Z,1021.67
2022-08-07T10:28:56.205Z,1021.62
2022-08-07T10:29:56.101Z,1021.62
2022-08-07T10:30:56.033Z,1021.63
2022-08-07T10:31:56.025Z,1021.62
2022-08-07T10:32:59.646Z,1021.61
2022-08-07T10:34:05.625Z,1021.57
2022-08-07T10:34:55.859Z,1021.55
2022-08-07T10:36:05.548Z,1021.58
2022-08-07T10:36:55.757Z,1021.58
2022-08-07T10:38:21.644Z,1021.57
2022-08-07T10:38:55.634Z,1021.54
2022-08-07T10:40:03.451Z,1021.54
2022-08-07T10:40:55.531Z,1021.55
2022-08-07T10:42:00.414Z,1021.56
2022-08-07T10:42:55.450Z,1021.54
2022-08-07T10:43:55.400Z,1021.53
2022-08-07T10:44:55.780Z,1021.52
2022-08-07T10:45:58.339Z,1021.53
2022-08-07T10:46:55.205Z,1021.50
2022-08-07T10:47:58.701Z,1021.52
2022-08-07T10:48:55.088Z,1021.50
2022-08-07T10:49:55.052Z,1021.49
2022-08-07T10:50:55.005Z,1021.46
2022-08-07T10:52:02.071Z,1021.46
2022-08-07T10:52:54.894Z,1021.48
2022-08-07T10:53:58.496Z,1021.48
2022-08-07T10:55:01.684Z,1021.51
2022-08-07T10:55:54.736Z,1021.47
2022-08-07T10:56:54.662Z,1021.45
2022-08-07T10:57:56.314Z,1021.41
2022-08-07T10:58:59.681Z,1021.36
2022-08-07T10:59:54.538Z,1021.40
2022-08-07T11:00:56.131Z,1021.38
2022-08-07T11:02:04.668Z,1021.33
2022-08-07T11:02:54.356Z,1021.32
2022-08-07T11:04:05.422Z,1021.33
2022-08-07T11:04:54.255Z,1021.27
2022-08-07T11:05:54.701Z,1021.28
2022-08-07T11:06:54.135Z,1021.28
2022-08-07T11:07:59.508Z,1021.26
2022-08-07T11:08:54.076Z,1021.30
2022-08-07T11:10:07.861Z,1021.25
2022-08-07T11:10:59.456Z,1021.29
2022-08-07T11:11:53.854Z,1021.28
2022-08-07T11:13:01.572Z,1021.23
2022-08-07T11:14:45.970Z,1021.23
2022-08-07T11:15:00.445Z,1021.20
2022-08-07T11:15:54.688Z,1021.17
2022-08-07T11:16:55.685Z,1021.16
2022-08-07T11:17:54.133Z,1021.15
2022-08-07T11:18:53.544Z,1021.11
2022-08-07T11:19:53.447Z,1021.11
2022-08-07T11:20:53.439Z,1021.09
2022-08-07T11:21:53.389Z,1021.09
2022-08-07T11:22:53.305Z,1021.06
2022-08-07T11:23:53.265Z,1021.08
2022-08-07T11:24:53.180Z,1021.05
2022-08-07T11:25:53.180Z,1021.01
2022-08-07T11:26:53.079Z,1020.97
2022-08-07T11:28:03.085Z,1020.99
2022-08-07T11:28:53.338Z,1020.91
2022-08-07T11:30:10.002Z,1020.97
2022-08-07T11:30:52.931Z,1020.94
2022-08-07T11:31:52.830Z,1020.91
2022-08-07T11:32:52.898Z,1020.90
2022-08-07T11:33:58.428Z,1020.87
2022-08-07T11:34:52.679Z,1020.91
2022-08-07T11:35:59.428Z,1020.88
2022-08-07T11:36:52.565Z,1020.88
2022-08-07T11:37:57.859Z,1020.92
2022-08-07T11:38:52.543Z,1020.89
2022-08-07T11:39:59.741Z,1020.91
2022-08-07T11:40:52.351Z,1020.90
2022-08-07T11:42:02.327Z,1020.89
2022-08-07T11:42:52.264Z,1020.85
2022-08-07T11:44:11.103Z,1020.81
2022-08-07T11:44:57.705Z,1020.82
2022-08-07T11:45:53.255Z,1020.78
2022-08-07T11:46:52.013Z,1020.80
2022-08-07T11:47:53.593Z,1020.76
2022-08-07T11:49:50.657Z,1020.72
2022-08-07T11:50:31.010Z,1020.73
2022-08-07T11:50:58.154Z,1020.73
2022-08-07T11:51:51.786Z,1020.72
2022-08-07T11:52:51.839Z,1020.72
2022-08-07T11:54:01.215Z,1020.71
2022-08-07T11:54:54.852Z,1020.71
2022-08-07T11:56:15.658Z,1020.71
2022-08-07T11:56:53.014Z,1020.68
2022-08-07T11:57:59.533Z,1020.68
2022-08-07T11:58:51.412Z,1020.66
2022-08-07T12:00:10.212Z,1020.66
2022-08-07T12:01:01.652Z,1020.64
2022-08-07T12:02:00.035Z,1020.67
2022-08-07T12:02:52.398Z,1020.66
2022-08-07T12:03:51.183Z,1020.65
2022-08-07T12:04:51.030Z,1020.65
2022-08-07T12:05:50.975Z,1020.64